Time;durP1;ratioP1;P1;durP2;ratioP2;P2;SDS_P1;SDS_P2;PMS_P1;PMS_P2;Temp;Humidity;BMP_temperature;BMP_pressure;BME280_temperature;BME280_humidity;BME280_pressure;Samples;Min_cycle;Max_cycle;Signal;HPM_P1;HPM_P2
2020/02/15 00:02:11;;;;;;;10.3;5.6;;;;;;;;;;;;;
2020/02/15 00:04:36;;;;;;;10.4;5.4;;;;;;;;;;;;;
2020/02/15 00:07:01;;;;;;;7.7;4.6;;;;;;;;;;;;;
2020/02/15 00:09:26;;;;;;;10.3;5.1;;;;;;;;;;;;;
2020/02/15 00:11:51;;;;;;;9.1;4.8;;;;;;;;;;;;;
2020/02/15 00:14:16;;;;;;;8.1;4.3;;;;;;;;;;;;;
2020/02/15 00:19:06;;;;;;;8.7;4.4;;;;;;;;;;;;;
2020/02/15 00:21:31;;;;;;;7.5;4.1;;;;;;;;;;;;;
2020/02/15 00:23:56;;;;;;;9.5;4.6;;;;;;;;;;;;;
2020/02/15 00:26:21;;;;;;;9;3.9;;;;;;;;;;;;;
2020/02/15 00:28:46;;;;;;;6.1;3.7;;;;;;;;;;;;;
2020/02/15 00:31:11;;;;;;;7;3.7;;;;;;;;;;;;;
2020/02/15 00:33:37;;;;;;;8.1;4.4;;;;;;;;;;;;;
2020/02/15 00:36:02;;;;;;;6.8;3.8;;;;;;;;;;;;;
2020/02/15 00:38:27;;;;;;;6.7;3.8;;;;;;;;;;;;;
2020/02/15 00:40:52;;;;;;;7.5;3.9;;;;;;;;;;;;;
2020/02/15 00:43:17;;;;;;;8.3;4.2;;;;;;;;;;;;;
2020/02/15 00:45:42;;;;;;;7.5;4.4;;;;;;;;;;;;;
2020/02/15 00:48:07;;;;;;;8.2;4.8;;;;;;;;;;;;;
2020/02/15 00:50:32;;;;;;;10.9;6.1;;;;;;;;;;;;;
2020/02/15 00:52:58;;;;;;;10.8;6.4;;;;;;;;;;;;;
2020/02/15 00:55:27;;;;;;;9.8;6.3;;;;;;;;;;;;;
2020/02/15 00:57:52;;;;;;;8.5;6.1;;;;;;;;;;;;;
2020/02/15 01:00:17;;;;;;;8.3;5.7;;;;;;;;;;;;;
2020/02/15 01:02:43;;;;;;;8.4;5.8;;;;;;;;;;;;;
2020/02/15 01:05:08;;;;;;;8.8;5.7;;;;;;;;;;;;;
2020/02/15 01:07:33;;;;;;;9.2;6.3;;;;;;;;;;;;;
2020/02/15 01:09:58;;;;;;;10.1;6.3;;;;;;;;;;;;;
2020/02/15 01:14:48;;;;;;;11.4;6.8;;;;;;;;;;;;;
2020/02/15 01:17:13;;;;;;;10.4;6.7;;;;;;;;;;;;;
2020/02/15 01:19:39;;;;;;;10.2;6.7;;;;;;;;;;;;;
2020/02/15 01:22:04;;;;;;;9;6.5;;;;;;;;;;;;;
2020/02/15 01:24:29;;;;;;;9.1;6.7;;;;;;;;;;;;;
2020/02/15 01:26:54;;;;;;;8.4;6.4;;;;;;;;;;;;;
2020/02/15 01:29:19;;;;;;;11.1;6.9;;;;;;;;;;;;;
2020/02/15 01:31:44;;;;;;;12.3;7.5;;;;;;;;;;;;;
2020/02/15 01:34:09;;;;;;;11.7;7.9;;;;;;;;;;;;;
2020/02/15 01:36:34;;;;;;;11.6;7.3;;;;;;;;;;;;;
2020/02/15 01:38:59;;;;;;;11.2;7.3;;;;;;;;;;;;;
2020/02/15 01:41:25;;;;;;;10.3;6.7;;;;;;;;;;;;;
2020/02/15 01:43:50;;;;;;;11.9;7.3;;;;;;;;;;;;;
2020/02/15 01:46:16;;;;;;;11.5;7.5;;;;;;;;;;;;;
2020/02/15 01:48:41;;;;;;;8.9;6.6;;;;;;;;;;;;;
2020/02/15 01:51:06;;;;;;;8.9;6.2;;;;;;;;;;;;;
2020/02/15 01:53:31;;;;;;;10.1;6.8;;;;;;;;;;;;;
2020/02/15 01:55:57;;;;;;;9;6;;;;;;;;;;;;;
2020/02/15 01:58:21;;;;;;;8;5.8;;;;;;;;;;;;;
2020/02/15 02:00:46;;;;;;;9.4;5.6;;;;;;;;;;;;;
2020/02/15 02:03:11;;;;;;;9.5;6.2;;;;;;;;;;;;;
2020/02/15 02:05:36;;;;;;;10.2;6.3;;;;;;;;;;;;;
2020/02/15 02:08:01;;;;;;;10.3;6;;;;;;;;;;;;;
2020/02/15 02:10:26;;;;;;;8.2;5.6;;;;;;;;;;;;;
2020/02/15 02:12:51;;;;;;;8.7;5.5;;;;;;;;;;;;;
2020/02/15 02:15:17;;;;;;;8.2;5.2;;;;;;;;;;;;;
2020/02/15 02:17:42;;;;;;;10.2;5.6;;;;;;;;;;;;;
2020/02/15 02:20:07;;;;;;;8.3;5.5;;;;;;;;;;;;;
2020/02/15 02:22:32;;;;;;;8.1;6.1;;;;;;;;;;;;;
2020/02/15 02:24:57;;;;;;;8.6;5.3;;;;;;;;;;;;;
2020/02/15 02:27:22;;;;;;;9.8;5.5;;;;;;;;;;;;;
2020/02/15 02:29:47;;;;;;;8;5.8;;;;;;;;;;;;;
2020/02/15 02:32:12;;;;;;;8.9;5.9;;;;;;;;;;;;;
2020/02/15 02:34:37;;;;;;;8.9;5.6;;;;;;;;;;;;;
2020/02/15 02:37:02;;;;;;;8.8;5.4;;;;;;;;;;;;;
2020/02/15 02:39:28;;;;;;;8.5;5.5;;;;;;;;;;;;;
2020/02/15 02:41:53;;;;;;;7.4;4.9;;;;;;;;;;;;;
2020/02/15 02:44:18;;;;;;;6.8;4.6;;;;;;;;;;;;;
2020/02/15 02:46:44;;;;;;;7.8;4.7;;;;;;;;;;;;;
2020/02/15 02:49:09;;;;;;;6.1;4.5;;;;;;;;;;;;;
2020/02/15 02:51:34;;;;;;;7.9;4.7;;;;;;;;;;;;;
2020/02/15 02:53:59;;;;;;;6.4;4.4;;;;;;;;;;;;;
2020/02/15 02:56:24;;;;;;;8.7;4.6;;;;;;;;;;;;;
2020/02/15 02:58:49;;;;;;;6.6;4.7;;;;;;;;;;;;;
2020/02/15 03:01:14;;;;;;;8.3;4.6;;;;;;;;;;;;;
2020/02/15 03:03:39;;;;;;;7.5;5.3;;;;;;;;;;;;;
2020/02/15 03:06:04;;;;;;;7.3;5;;;;;;;;;;;;;
2020/02/15 03:08:29;;;;;;;6.5;4.8;;;;;;;;;;;;;
2020/02/15 03:10:54;;;;;;;7.6;4.9;;;;;;;;;;;;;
2020/02/15 03:13:19;;;;;;;8;4.7;;;;;;;;;;;;;
2020/02/15 03:15:44;;;;;;;8.9;5.6;;;;;;;;;;;;;
2020/02/15 03:18:10;;;;;;;9;6.1;;;;;;;;;;;;;
2020/02/15 03:20:35;;;;;;;7.7;5.4;;;;;;;;;;;;;
2020/02/15 03:23:00;;;;;;;7.2;4.9;;;;;;;;;;;;;
2020/02/15 03:25:26;;;;;;;7;4.7;;;;;;;;;;;;;
2020/02/15 03:27:50;;;;;;;8.2;4.6;;;;;;;;;;;;;
2020/02/15 03:30:15;;;;;;;6.5;4.7;;;;;;;;;;;;;
2020/02/15 03:32:40;;;;;;;6.9;4.4;;;;;;;;;;;;;
2020/02/15 03:35:05;;;;;;;7.9;4.8;;;;;;;;;;;;;
2020/02/15 03:37:30;;;;;;;7.9;4.9;;;;;;;;;;;;;
2020/02/15 03:39:56;;;;;;;6.4;4.3;;;;;;;;;;;;;
2020/02/15 03:42:20;;;;;;;6.2;4.4;;;;;;;;;;;;;
2020/02/15 03:44:46;;;;;;;6.6;4.2;;;;;;;;;;;;;
2020/02/15 03:47:11;;;;;;;5.3;4;;;;;;;;;;;;;
2020/02/15 03:49:36;;;;;;;6.7;4.2;;;;;;;;;;;;;
2020/02/15 03:52:01;;;;;;;6.8;4.6;;;;;;;;;;;;;
2020/02/15 03:54:26;;;;;;;6.5;4.3;;;;;;;;;;;;;
2020/02/15 03:56:51;;;;;;;6.5;4;;;;;;;;;;;;;
2020/02/15 03:59:16;;;;;;;6.7;4;;;;;;;;;;;;;
2020/02/15 04:02:27;;;;;;;6.3;4.4;;;;;;;;;;;;;
2020/02/15 04:04:52;;;;;;;6.4;4.1;;;;;;;;;;;;;
2020/02/15 04:07:17;;;;;;;6.3;4.1;;;;;;;;;;;;;
2020/02/15 04:09:42;;;;;;;5.3;4.1;;;;;;;;;;;;;
2020/02/15 04:12:07;;;;;;;6.5;4.6;;;;;;;;;;;;;
2020/02/15 04:14:33;;;;;;;6.7;4.6;;;;;;;;;;;;;
2020/02/15 04:16:58;;;;;;;9;5.1;;;;;;;;;;;;;
2020/02/15 04:19:23;;;;;;;6.8;4.9;;;;;;;;;;;;;
2020/02/15 04:21:48;;;;;;;6.6;4.7;;;;;;;;;;;;;
2020/02/15 04:24:13;;;;;;;5.6;4;;;;;;;;;;;;;
2020/02/15 04:26:38;;;;;;;6.3;4.4;;;;;;;;;;;;;
2020/02/15 04:29:03;;;;;;;7.2;4.4;;;;;;;;;;;;;
2020/02/15 04:31:29;;;;;;;6.3;4.4;;;;;;;;;;;;;
2020/02/15 04:33:54;;;;;;;8;4.4;;;;;;;;;;;;;
2020/02/15 04:38:50;;;;;;;7.4;4.1;;;;;;;;;;;;;
2020/02/15 04:41:09;;;;;;;8.3;4.9;;;;;;;;;;;;;
2020/02/15 04:43:34;;;;;;;7.1;4.6;;;;;;;;;;;;;
2020/02/15 04:45:59;;;;;;;7.3;4.5;;;;;;;;;;;;;
2020/02/15 04:48:24;;;;;;;6.4;4.3;;;;;;;;;;;;;
2020/02/15 04:50:49;;;;;;;8;4.2;;;;;;;;;;;;;
2020/02/15 04:53:14;;;;;;;6;4;;;;;;;;;;;;;
2020/02/15 04:55:40;;;;;;;6;4.1;;;;;;;;;;;;;
2020/02/15 04:58:54;;;;;;;6.8;3.8;;;;;;;;;;;;;
2020/02/15 05:00:33;;;;;;;7.4;4;;;;;;;;;;;;;
2020/02/15 05:02:55;;;;;;;5.9;3.9;;;;;;;;;;;;;
2020/02/15 05:05:20;;;;;;;5.2;3.9;;;;;;;;;;;;;
2020/02/15 05:07:45;;;;;;;6.7;4.2;;;;;;;;;;;;;
2020/02/15 05:10:10;;;;;;;5;3.8;;;;;;;;;;;;;
2020/02/15 05:12:35;;;;;;;4.2;3.5;;;;;;;;;;;;;
2020/02/15 05:15:00;;;;;;;5.8;3.9;;;;;;;;;;;;;
2020/02/15 05:17:26;;;;;;;6.4;4;;;;;;;;;;;;;
2020/02/15 05:19:51;;;;;;;5.2;3.8;;;;;;;;;;;;;
2020/02/15 05:22:16;;;;;;;5.9;4;;;;;;;;;;;;;
2020/02/15 05:24:41;;;;;;;5.8;4.1;;;;;;;;;;;;;
2020/02/15 05:27:06;;;;;;;6.8;3.9;;;;;;;;;;;;;
2020/02/15 05:29:31;;;;;;;7.7;3.8;;;;;;;;;;;;;
2020/02/15 05:31:56;;;;;;;5.4;4.1;;;;;;;;;;;;;
2020/02/15 05:34:21;;;;;;;5.8;3.9;;;;;;;;;;;;;
2020/02/15 05:36:46;;;;;;;5.8;3.8;;;;;;;;;;;;;
2020/02/15 05:39:11;;;;;;;4.6;3.5;;;;;;;;;;;;;
2020/02/15 05:41:39;;;;;;;4.4;3.3;;;;;;;;;;;;;
2020/02/15 05:44:02;;;;;;;5.2;3.5;;;;;;;;;;;;;
2020/02/15 05:46:27;;;;;;;4.7;2.9;;;;;;;;;;;;;
2020/02/15 05:49:02;;;;;;;4.5;3;;;;;;;;;;;;;
2020/02/15 05:51:28;;;;;;;4.8;3.1;;;;;;;;;;;;;
2020/02/15 05:53:42;;;;;;;4.8;3.6;;;;;;;;;;;;;
2020/02/15 05:56:07;;;;;;;6.2;3.5;;;;;;;;;;;;;
2020/02/15 05:58:33;;;;;;;4.2;2.9;;;;;;;;;;;;;
2020/02/15 06:01:01;;;;;;;4.2;3.3;;;;;;;;;;;;;
2020/02/15 06:03:23;;;;;;;5.2;3.2;;;;;;;;;;;;;
2020/02/15 06:05:48;;;;;;;6;3.5;;;;;;;;;;;;;
2020/02/15 06:08:13;;;;;;;4.7;3.1;;;;;;;;;;;;;
2020/02/15 06:10:38;;;;;;;6.5;3.3;;;;;;;;;;;;;
2020/02/15 06:13:03;;;;;;;4.7;3;;;;;;;;;;;;;
2020/02/15 06:15:28;;;;;;;5.3;3.5;;;;;;;;;;;;;
2020/02/15 06:17:53;;;;;;;6.2;3.5;;;;;;;;;;;;;
2020/02/15 06:20:18;;;;;;;5.2;3.6;;;;;;;;;;;;;
2020/02/15 06:22:44;;;;;;;5.3;3.6;;;;;;;;;;;;;
2020/02/15 06:25:09;;;;;;;5.3;3.6;;;;;;;;;;;;;
2020/02/15 06:27:34;;;;;;;6.5;3.7;;;;;;;;;;;;;
2020/02/15 06:29:59;;;;;;;5.5;3.6;;;;;;;;;;;;;
2020/02/15 06:32:28;;;;;;;5.2;3.4;;;;;;;;;;;;;
2020/02/15 06:37:19;;;;;;;5.4;4;;;;;;;;;;;;;
2020/02/15 06:39:40;;;;;;;4.9;3.8;;;;;;;;;;;;;
2020/02/15 06:42:05;;;;;;;6.3;3.7;;;;;;;;;;;;;
2020/02/15 06:44:30;;;;;;;5.9;4;;;;;;;;;;;;;
2020/02/15 06:46:55;;;;;;;7.2;4.2;;;;;;;;;;;;;
2020/02/15 06:49:20;;;;;;;6.7;4.7;;;;;;;;;;;;;
2020/02/15 06:51:45;;;;;;;5.5;4;;;;;;;;;;;;;
2020/02/15 06:56:52;;;;;;;5.8;4.4;;;;;;;;;;;;;
2020/02/15 06:59:07;;;;;;;7.4;5.1;;;;;;;;;;;;;
2020/02/15 07:01:26;;;;;;;6.7;4.7;;;;;;;;;;;;;
2020/02/15 07:03:51;;;;;;;7.2;5.2;;;;;;;;;;;;;
2020/02/15 07:06:16;;;;;;;5.4;4.5;;;;;;;;;;;;;
2020/02/15 07:08:41;;;;;;;8.7;4.8;;;;;;;;;;;;;
2020/02/15 07:11:06;;;;;;;6.1;4.8;;;;;;;;;;;;;
2020/02/15 07:13:31;;;;;;;8.1;5.3;;;;;;;;;;;;;
2020/02/15 07:15:56;;;;;;;6.6;4.9;;;;;;;;;;;;;
2020/02/15 07:18:22;;;;;;;7.1;4.9;;;;;;;;;;;;;
2020/02/15 07:20:47;;;;;;;6.6;4.9;;;;;;;;;;;;;
2020/02/15 07:23:12;;;;;;;6.1;4.7;;;;;;;;;;;;;
2020/02/15 07:25:37;;;;;;;6.4;5.2;;;;;;;;;;;;;
2020/02/15 07:28:02;;;;;;;7.2;6.1;;;;;;;;;;;;;
2020/02/15 07:30:27;;;;;;;7.2;5.6;;;;;;;;;;;;;
2020/02/15 07:32:52;;;;;;;7.4;4.9;;;;;;;;;;;;;
2020/02/15 07:35:17;;;;;;;6.9;5.2;;;;;;;;;;;;;
2020/02/15 07:37:43;;;;;;;6.7;4.5;;;;;;;;;;;;;
2020/02/15 07:40:08;;;;;;;6.2;4.5;;;;;;;;;;;;;
2020/02/15 07:42:33;;;;;;;8.5;5.1;;;;;;;;;;;;;
2020/02/15 07:44:58;;;;;;;6.7;4.6;;;;;;;;;;;;;
2020/02/15 07:47:23;;;;;;;10.3;7.2;;;;;;;;;;;;;
2020/02/15 07:49:48;;;;;;;10.7;6.7;;;;;;;;;;;;;
2020/02/15 07:52:13;;;;;;;11;7.2;;;;;;;;;;;;;
2020/02/15 07:54:38;;;;;;;12;7.3;;;;;;;;;;;;;
2020/02/15 07:57:04;;;;;;;8.3;5.6;;;;;;;;;;;;;
2020/02/15 07:59:29;;;;;;;10.1;5.5;;;;;;;;;;;;;
2020/02/15 08:01:54;;;;;;;8.2;4.5;;;;;;;;;;;;;
2020/02/15 08:04:19;;;;;;;5.5;3.6;;;;;;;;;;;;;
2020/02/15 08:06:44;;;;;;;6.1;3.9;;;;;;;;;;;;;
2020/02/15 08:09:09;;;;;;;5.9;3.9;;;;;;;;;;;;;
2020/02/15 08:11:34;;;;;;;6.1;3.9;;;;;;;;;;;;;
2020/02/15 08:13:59;;;;;;;7.6;3.7;;;;;;;;;;;;;
2020/02/15 08:16:24;;;;;;;14.9;4.7;;;;;;;;;;;;;
2020/02/15 08:18:50;;;;;;;15;4.7;;;;;;;;;;;;;
2020/02/15 08:21:26;;;;;;;8.4;4.3;;;;;;;;;;;;;
2020/02/15 08:23:58;;;;;;;11.4;5.1;;;;;;;;;;;;;
2020/02/15 08:26:06;;;;;;;10.8;6.7;;;;;;;;;;;;;
2020/02/15 08:28:30;;;;;;;12.7;5.4;;;;;;;;;;;;;
2020/02/15 08:30:55;;;;;;;11.3;4.9;;;;;;;;;;;;;
2020/02/15 08:33:20;;;;;;;7.4;4;;;;;;;;;;;;;
2020/02/15 08:35:45;;;;;;;8.1;4.3;;;;;;;;;;;;;
2020/02/15 08:38:10;;;;;;;9.2;4.4;;;;;;;;;;;;;
2020/02/15 08:43:01;;;;;;;7.1;4.2;;;;;;;;;;;;;
2020/02/15 08:45:26;;;;;;;6.9;4;;;;;;;;;;;;;
2020/02/15 08:47:53;;;;;;;6.7;3.7;;;;;;;;;;;;;
2020/02/15 08:50:18;;;;;;;6;3.7;;;;;;;;;;;;;
2020/02/15 08:52:43;;;;;;;4.4;3.2;;;;;;;;;;;;;
2020/02/15 08:55:08;;;;;;;4.8;3.4;;;;;;;;;;;;;
2020/02/15 08:57:34;;;;;;;5.7;3.7;;;;;;;;;;;;;
2020/02/15 08:59:59;;;;;;;7.4;3.5;;;;;;;;;;;;;
2020/02/15 09:02:24;;;;;;;7.3;3.8;;;;;;;;;;;;;
2020/02/15 09:04:49;;;;;;;6.3;4;;;;;;;;;;;;;
2020/02/15 09:07:14;;;;;;;6.3;4.1;;;;;;;;;;;;;
2020/02/15 09:09:39;;;;;;;5.7;3.7;;;;;;;;;;;;;
2020/02/15 09:12:04;;;;;;;5.9;3.7;;;;;;;;;;;;;
2020/02/15 09:14:29;;;;;;;6.3;3.9;;;;;;;;;;;;;
2020/02/15 09:16:54;;;;;;;7;3.8;;;;;;;;;;;;;
2020/02/15 09:19:20;;;;;;;6.9;3.8;;;;;;;;;;;;;
2020/02/15 09:21:45;;;;;;;4.9;3.5;;;;;;;;;;;;;
2020/02/15 09:24:10;;;;;;;6.5;3.5;;;;;;;;;;;;;
2020/02/15 09:26:35;;;;;;;5.6;3.5;;;;;;;;;;;;;
2020/02/15 09:29:00;;;;;;;5.6;3.4;;;;;;;;;;;;;
2020/02/15 09:31:25;;;;;;;4.8;2.9;;;;;;;;;;;;;
2020/02/15 09:33:50;;;;;;;5.3;3.1;;;;;;;;;;;;;
2020/02/15 09:36:15;;;;;;;6.1;3.5;;;;;;;;;;;;;
2020/02/15 09:38:40;;;;;;;5.1;3.3;;;;;;;;;;;;;
2020/02/15 09:41:05;;;;;;;6.3;2.9;;;;;;;;;;;;;
2020/02/15 09:43:30;;;;;;;3.8;2.6;;;;;;;;;;;;;
2020/02/15 09:45:56;;;;;;;4.2;2.8;;;;;;;;;;;;;
2020/02/15 09:48:21;;;;;;;4.2;3;;;;;;;;;;;;;
2020/02/15 09:50:46;;;;;;;5.4;3.3;;;;;;;;;;;;;
2020/02/15 09:53:11;;;;;;;6.8;4.9;;;;;;;;;;;;;
2020/02/15 09:55:36;;;;;;;8.2;5.3;;;;;;;;;;;;;
2020/02/15 09:58:01;;;;;;;8.4;5.7;;;;;;;;;;;;;
2020/02/15 10:00:26;;;;;;;8;5.9;;;;;;;;;;;;;
2020/02/15 10:02:51;;;;;;;7;5.3;;;;;;;;;;;;;
2020/02/15 10:05:16;;;;;;;6.2;4.9;;;;;;;;;;;;;
2020/02/15 10:07:42;;;;;;;6.4;4.6;;;;;;;;;;;;;
2020/02/15 10:10:07;;;;;;;7.8;4.8;;;;;;;;;;;;;
2020/02/15 10:12:32;;;;;;;7.5;5.1;;;;;;;;;;;;;
2020/02/15 10:14:57;;;;;;;8.1;4.8;;;;;;;;;;;;;
2020/02/15 10:17:22;;;;;;;6.1;4.1;;;;;;;;;;;;;
2020/02/15 10:19:47;;;;;;;5.1;3.3;;;;;;;;;;;;;
2020/02/15 10:22:12;;;;;;;5.2;3.6;;;;;;;;;;;;;
2020/02/15 10:24:37;;;;;;;6.7;3.8;;;;;;;;;;;;;
2020/02/15 10:27:02;;;;;;;5.5;3.5;;;;;;;;;;;;;
2020/02/15 10:29:28;;;;;;;4.5;3.5;;;;;;;;;;;;;
2020/02/15 10:31:53;;;;;;;6.2;4;;;;;;;;;;;;;
2020/02/15 10:34:18;;;;;;;6.2;3.4;;;;;;;;;;;;;
2020/02/15 10:36:43;;;;;;;6.3;3.3;;;;;;;;;;;;;
2020/02/15 10:39:08;;;;;;;6;3.6;;;;;;;;;;;;;
2020/02/15 10:41:33;;;;;;;5.1;3.2;;;;;;;;;;;;;
2020/02/15 10:43:58;;;;;;;3.7;2.6;;;;;;;;;;;;;
2020/02/15 10:46:23;;;;;;;4.1;2.4;;;;;;;;;;;;;
2020/02/15 10:48:48;;;;;;;4;2.5;;;;;;;;;;;;;
2020/02/15 10:51:13;;;;;;;3.3;2.4;;;;;;;;;;;;;
2020/02/15 10:53:38;;;;;;;5.7;2.6;;;;;;;;;;;;;
2020/02/15 10:56:03;;;;;;;3.6;2.7;;;;;;;;;;;;;
2020/02/15 10:58:28;;;;;;;3.7;2.7;;;;;;;;;;;;;
2020/02/15 11:00:55;;;;;;;4;2.8;;;;;;;;;;;;;
2020/02/15 11:03:32;;;;;;;4.6;2.3;;;;;;;;;;;;;
2020/02/15 11:05:44;;;;;;;3.1;2.3;;;;;;;;;;;;;
2020/02/15 11:08:09;;;;;;;3.4;2.2;;;;;;;;;;;;;
2020/02/15 11:10:34;;;;;;;3.7;2.2;;;;;;;;;;;;;
2020/02/15 11:12:59;;;;;;;3.7;2.4;;;;;;;;;;;;;
2020/02/15 11:15:24;;;;;;;4.5;2.4;;;;;;;;;;;;;
2020/02/15 11:17:49;;;;;;;3.6;2.2;;;;;;;;;;;;;
2020/02/15 11:20:14;;;;;;;3.1;1.9;;;;;;;;;;;;;
2020/02/15 11:22:39;;;;;;;4.2;2.3;;;;;;;;;;;;;
2020/02/15 11:25:04;;;;;;;3.4;2.2;;;;;;;;;;;;;
2020/02/15 11:27:29;;;;;;;5.3;2.4;;;;;;;;;;;;;
2020/02/15 11:29:54;;;;;;;3.2;2.3;;;;;;;;;;;;;
2020/02/15 11:32:19;;;;;;;3.5;2.4;;;;;;;;;;;;;
2020/02/15 11:34:45;;;;;;;4.1;2.3;;;;;;;;;;;;;
2020/02/15 11:37:10;;;;;;;5.1;2.3;;;;;;;;;;;;;
2020/02/15 11:39:35;;;;;;;4.1;2.1;;;;;;;;;;;;;
2020/02/15 11:42:00;;;;;;;7.6;2.4;;;;;;;;;;;;;
2020/02/15 11:44:25;;;;;;;3.4;1.7;;;;;;;;;;;;;
2020/02/15 11:46:50;;;;;;;2.3;1.6;;;;;;;;;;;;;
2020/02/15 11:49:15;;;;;;;2.2;1.4;;;;;;;;;;;;;
2020/02/15 11:51:40;;;;;;;2.8;1.2;;;;;;;;;;;;;
2020/02/15 11:54:05;;;;;;;2.1;1.4;;;;;;;;;;;;;
2020/02/15 11:56:30;;;;;;;1.8;1.3;;;;;;;;;;;;;
2020/02/15 11:58:56;;;;;;;1.9;1.3;;;;;;;;;;;;;
2020/02/15 12:01:21;;;;;;;3.1;1.3;;;;;;;;;;;;;
2020/02/15 12:03:46;;;;;;;2.4;1.3;;;;;;;;;;;;;
2020/02/15 12:06:11;;;;;;;2.5;1.4;;;;;;;;;;;;;
2020/02/15 12:08:36;;;;;;;2.6;1.2;;;;;;;;;;;;;
2020/02/15 12:11:01;;;;;;;2.5;1.4;;;;;;;;;;;;;
2020/02/15 12:13:26;;;;;;;2;1.1;;;;;;;;;;;;;
2020/02/15 12:15:51;;;;;;;1.6;0.9;;;;;;;;;;;;;
2020/02/15 12:18:16;;;;;;;2.1;1.2;;;;;;;;;;;;;
2020/02/15 12:20:41;;;;;;;1.1;0.9;;;;;;;;;;;;;
2020/02/15 12:23:06;;;;;;;1.9;1.1;;;;;;;;;;;;;
2020/02/15 12:25:31;;;;;;;2.5;1.5;;;;;;;;;;;;;
2020/02/15 12:27:57;;;;;;;2.1;1.3;;;;;;;;;;;;;
2020/02/15 12:30:22;;;;;;;1.5;1.2;;;;;;;;;;;;;
2020/02/15 12:32:47;;;;;;;3.4;1.5;;;;;;;;;;;;;
2020/02/15 12:35:12;;;;;;;2.2;1.3;;;;;;;;;;;;;
2020/02/15 12:37:37;;;;;;;2.5;1.4;;;;;;;;;;;;;
2020/02/15 12:40:02;;;;;;;2.9;1.5;;;;;;;;;;;;;
2020/02/15 12:42:27;;;;;;;3.4;1.8;;;;;;;;;;;;;
2020/02/15 12:44:52;;;;;;;3.2;1.7;;;;;;;;;;;;;
2020/02/15 12:47:17;;;;;;;3.8;2.6;;;;;;;;;;;;;
2020/02/15 12:49:42;;;;;;;3.2;2.5;;;;;;;;;;;;;
2020/02/15 12:52:07;;;;;;;4.5;3.3;;;;;;;;;;;;;
2020/02/15 12:54:32;;;;;;;4.9;2.3;;;;;;;;;;;;;
2020/02/15 12:56:57;;;;;;;4.1;2.4;;;;;;;;;;;;;
2020/02/15 12:59:26;;;;;;;3.5;2.1;;;;;;;;;;;;;
2020/02/15 13:01:52;;;;;;;3.7;2.3;;;;;;;;;;;;;
2020/02/15 13:04:17;;;;;;;4.1;2.3;;;;;;;;;;;;;
2020/02/15 13:06:42;;;;;;;4.2;2.4;;;;;;;;;;;;;
2020/02/15 13:09:09;;;;;;;3.7;2.4;;;;;;;;;;;;;
2020/02/15 13:11:38;;;;;;;3.4;2.3;;;;;;;;;;;;;
2020/02/15 13:13:58;;;;;;;3.8;2.8;;;;;;;;;;;;;
2020/02/15 13:16:42;;;;;;;3.6;2.8;;;;;;;;;;;;;
2020/02/15 13:18:48;;;;;;;4.2;2.6;;;;;;;;;;;;;
2020/02/15 13:21:13;;;;;;;4.3;2.8;;;;;;;;;;;;;
2020/02/15 13:23:38;;;;;;;4.6;2.6;;;;;;;;;;;;;
2020/02/15 13:26:03;;;;;;;3.7;2.7;;;;;;;;;;;;;
2020/02/15 13:28:28;;;;;;;4.8;2.6;;;;;;;;;;;;;
2020/02/15 13:30:56;;;;;;;3.4;2.2;;;;;;;;;;;;;
2020/02/15 13:33:21;;;;;;;2.5;1.9;;;;;;;;;;;;;
2020/02/15 13:35:46;;;;;;;2.2;1.8;;;;;;;;;;;;;
2020/02/15 13:38:12;;;;;;;2.5;1.6;;;;;;;;;;;;;
2020/02/15 13:40:37;;;;;;;3.8;1.9;;;;;;;;;;;;;
2020/02/15 13:43:02;;;;;;;2.5;1.9;;;;;;;;;;;;;
2020/02/15 13:45:27;;;;;;;3.4;1.9;;;;;;;;;;;;;
2020/02/15 13:47:52;;;;;;;2.3;1.7;;;;;;;;;;;;;
2020/02/15 13:50:17;;;;;;;3;1.6;;;;;;;;;;;;;
2020/02/15 13:52:42;;;;;;;2.4;1.6;;;;;;;;;;;;;
2020/02/15 13:55:07;;;;;;;2.4;1.8;;;;;;;;;;;;;
2020/02/15 13:57:32;;;;;;;2;1.3;;;;;;;;;;;;;
2020/02/15 13:59:57;;;;;;;3.1;1.4;;;;;;;;;;;;;
2020/02/15 14:02:23;;;;;;;3.5;1.6;;;;;;;;;;;;;
2020/02/15 14:04:48;;;;;;;2.6;1.4;;;;;;;;;;;;;
2020/02/15 14:07:13;;;;;;;3.6;1.8;;;;;;;;;;;;;
2020/02/15 14:09:38;;;;;;;3.1;1.8;;;;;;;;;;;;;
2020/02/15 14:12:03;;;;;;;3.3;1.8;;;;;;;;;;;;;
2020/02/15 14:14:28;;;;;;;2.5;1.8;;;;;;;;;;;;;
2020/02/15 14:16:53;;;;;;;2.3;1.4;;;;;;;;;;;;;
2020/02/15 14:19:18;;;;;;;1.9;1.4;;;;;;;;;;;;;
2020/02/15 14:21:43;;;;;;;3;1.5;;;;;;;;;;;;;
2020/02/15 14:24:08;;;;;;;2.4;1.4;;;;;;;;;;;;;
2020/02/15 14:26:34;;;;;;;1.8;1.4;;;;;;;;;;;;;
2020/02/15 14:28:59;;;;;;;3.1;1.6;;;;;;;;;;;;;
2020/02/15 14:31:24;;;;;;;1.9;1.4;;;;;;;;;;;;;
2020/02/15 14:33:49;;;;;;;3.4;1.4;;;;;;;;;;;;;
2020/02/15 14:36:14;;;;;;;2.1;1.6;;;;;;;;;;;;;
2020/02/15 14:38:39;;;;;;;2.7;1.9;;;;;;;;;;;;;
2020/02/15 14:41:04;;;;;;;3.2;2;;;;;;;;;;;;;
2020/02/15 14:43:29;;;;;;;4.4;1.6;;;;;;;;;;;;;
2020/02/15 14:45:54;;;;;;;2.5;1.5;;;;;;;;;;;;;
2020/02/15 14:48:19;;;;;;;2.2;1.7;;;;;;;;;;;;;
2020/02/15 14:50:45;;;;;;;2.8;1.5;;;;;;;;;;;;;
2020/02/15 14:53:10;;;;;;;8;1.9;;;;;;;;;;;;;
2020/02/15 14:55:35;;;;;;;2.3;1.6;;;;;;;;;;;;;
2020/02/15 14:58:00;;;;;;;3.2;1.7;;;;;;;;;;;;;
2020/02/15 15:00:25;;;;;;;4.1;1.9;;;;;;;;;;;;;
2020/02/15 15:02:50;;;;;;;3.2;1.9;;;;;;;;;;;;;
2020/02/15 15:05:15;;;;;;;2.4;1.7;;;;;;;;;;;;;
2020/02/15 15:07:40;;;;;;;3.2;2;;;;;;;;;;;;;
2020/02/15 15:10:05;;;;;;;2.1;1.5;;;;;;;;;;;;;
2020/02/15 15:12:30;;;;;;;2.3;1.8;;;;;;;;;;;;;
2020/02/15 15:14:55;;;;;;;2.2;1.6;;;;;;;;;;;;;
2020/02/15 15:17:20;;;;;;;2.1;1.6;;;;;;;;;;;;;
2020/02/15 15:19:45;;;;;;;2.3;1.7;;;;;;;;;;;;;
2020/02/15 15:22:10;;;;;;;4.3;1.9;;;;;;;;;;;;;
2020/02/15 15:24:36;;;;;;;3.8;2.1;;;;;;;;;;;;;
2020/02/15 15:27:01;;;;;;;2.4;1.8;;;;;;;;;;;;;
2020/02/15 15:29:26;;;;;;;3.4;2.3;;;;;;;;;;;;;
2020/02/15 15:31:51;;;;;;;2.5;1.8;;;;;;;;;;;;;
2020/02/15 15:34:16;;;;;;;2.8;1.8;;;;;;;;;;;;;
2020/02/15 15:36:41;;;;;;;1.9;1.6;;;;;;;;;;;;;
2020/02/15 15:39:06;;;;;;;3.1;1.6;;;;;;;;;;;;;
2020/02/15 15:41:31;;;;;;;3.3;1.8;;;;;;;;;;;;;
2020/02/15 15:43:56;;;;;;;2.5;1.7;;;;;;;;;;;;;
2020/02/15 15:46:21;;;;;;;3.7;1.8;;;;;;;;;;;;;
2020/02/15 15:48:46;;;;;;;1.9;1.6;;;;;;;;;;;;;
2020/02/15 15:51:12;;;;;;;2.7;1.4;;;;;;;;;;;;;
2020/02/15 15:53:37;;;;;;;2.6;1.5;;;;;;;;;;;;;
2020/02/15 15:56:02;;;;;;;2.3;1.6;;;;;;;;;;;;;
2020/02/15 15:58:27;;;;;;;1.8;1.5;;;;;;;;;;;;;
2020/02/15 16:00:52;;;;;;;2.9;1.4;;;;;;;;;;;;;
2020/02/15 16:03:17;;;;;;;2;1.5;;;;;;;;;;;;;
2020/02/15 16:05:42;;;;;;;2.8;1.4;;;;;;;;;;;;;
2020/02/15 16:08:07;;;;;;;2;1.3;;;;;;;;;;;;;
2020/02/15 16:10:38;;;;;;;3.1;1.6;;;;;;;;;;;;;
2020/02/15 16:12:58;;;;;;;4.5;1.6;;;;;;;;;;;;;
2020/02/15 16:15:24;;;;;;;3;1.6;;;;;;;;;;;;;
2020/02/15 16:22:00;;;;;;;3.6;1.8;;;;;;;;;;;;;
2020/02/15 16:22:52;;;;;;;2.5;1.9;;;;;;;;;;;;;
2020/02/15 16:25:06;;;;;;;3.4;2;;;;;;;;;;;;;
2020/02/15 16:27:29;;;;;;;4;1.8;;;;;;;;;;;;;
2020/02/15 16:29:54;;;;;;;4.5;2.9;;;;;;;;;;;;;
2020/02/15 16:32:19;;;;;;;4.5;2.9;;;;;;;;;;;;;
2020/02/15 16:34:44;;;;;;;4.4;2.8;;;;;;;;;;;;;
2020/02/15 16:37:09;;;;;;;4.8;2.7;;;;;;;;;;;;;
2020/02/15 16:39:34;;;;;;;10.3;6.3;;;;;;;;;;;;;
2020/02/15 16:41:59;;;;;;;5.1;3.2;;;;;;;;;;;;;
2020/02/15 16:44:24;;;;;;;4.7;2.5;;;;;;;;;;;;;
2020/02/15 16:46:49;;;;;;;6;3.8;;;;;;;;;;;;;
2020/02/15 16:49:15;;;;;;;5.8;4.1;;;;;;;;;;;;;
2020/02/15 16:51:40;;;;;;;4.1;3.2;;;;;;;;;;;;;
2020/02/15 16:54:05;;;;;;;5.3;3.3;;;;;;;;;;;;;
2020/02/15 16:56:30;;;;;;;3.4;2.5;;;;;;;;;;;;;
2020/02/15 16:58:55;;;;;;;4;2.4;;;;;;;;;;;;;
2020/02/15 17:01:20;;;;;;;4;2.5;;;;;;;;;;;;;
2020/02/15 17:03:45;;;;;;;4.5;2.5;;;;;;;;;;;;;
2020/02/15 17:06:10;;;;;;;5;2.8;;;;;;;;;;;;;
2020/02/15 17:08:35;;;;;;;3.9;2.8;;;;;;;;;;;;;
2020/02/15 17:11:00;;;;;;;3.4;2.8;;;;;;;;;;;;;
2020/02/15 17:13:25;;;;;;;3.4;2.6;;;;;;;;;;;;;
2020/02/15 17:15:51;;;;;;;4.9;2.8;;;;;;;;;;;;;
2020/02/15 17:18:16;;;;;;;4.9;2.8;;;;;;;;;;;;;
2020/02/15 17:20:41;;;;;;;5.3;3.1;;;;;;;;;;;;;
2020/02/15 17:23:06;;;;;;;4.8;2.9;;;;;;;;;;;;;
2020/02/15 17:25:31;;;;;;;4.2;3.2;;;;;;;;;;;;;
2020/02/15 17:27:56;;;;;;;3.6;3;;;;;;;;;;;;;
2020/02/15 17:30:21;;;;;;;5.6;3.5;;;;;;;;;;;;;
2020/02/15 17:32:46;;;;;;;5.3;3.6;;;;;;;;;;;;;
2020/02/15 17:35:11;;;;;;;5.1;3.5;;;;;;;;;;;;;
2020/02/15 17:37:37;;;;;;;4.6;3.5;;;;;;;;;;;;;
2020/02/15 17:40:02;;;;;;;7.6;3.7;;;;;;;;;;;;;
2020/02/15 17:42:27;;;;;;;6.3;3.6;;;;;;;;;;;;;
2020/02/15 17:44:52;;;;;;;8.1;5.4;;;;;;;;;;;;;
2020/02/15 17:47:17;;;;;;;8.4;4.2;;;;;;;;;;;;;
2020/02/15 17:49:42;;;;;;;7.4;4.2;;;;;;;;;;;;;
2020/02/15 17:52:07;;;;;;;6.4;4.2;;;;;;;;;;;;;
2020/02/15 17:54:32;;;;;;;9.4;4.2;;;;;;;;;;;;;
2020/02/15 17:56:57;;;;;;;7.4;3.9;;;;;;;;;;;;;
2020/02/15 17:59:23;;;;;;;6.1;3.8;;;;;;;;;;;;;
2020/02/15 18:01:48;;;;;;;4.8;3.6;;;;;;;;;;;;;
2020/02/15 18:04:13;;;;;;;5.1;3.6;;;;;;;;;;;;;
2020/02/15 18:06:38;;;;;;;5.5;3.8;;;;;;;;;;;;;
2020/02/15 18:09:04;;;;;;;5.4;3.8;;;;;;;;;;;;;
2020/02/15 18:11:28;;;;;;;4.8;3.6;;;;;;;;;;;;;
2020/02/15 18:13:53;;;;;;;5.7;4.3;;;;;;;;;;;;;
2020/02/15 18:23:40;;;;;;;9.7;5.5;;;;;;;;;;;;;
2020/02/15 18:36:05;;;;;;;9.4;6.8;;;;;;;;;;;;;
2020/02/15 18:38:07;;;;;;;10.4;6.8;;;;;;;;;;;;;
2020/02/15 18:40:29;;;;;;;8.7;6.5;;;;;;;;;;;;;
2020/02/15 18:42:54;;;;;;;8.3;5.5;;;;;;;;;;;;;
2020/02/15 18:45:19;;;;;;;10.1;5.7;;;;;;;;;;;;;
2020/02/15 18:47:44;;;;;;;7.6;5.2;;;;;;;;;;;;;
2020/02/15 18:50:09;;;;;;;8.1;4.8;;;;;;;;;;;;;
2020/02/15 18:52:34;;;;;;;8.7;4.9;;;;;;;;;;;;;
2020/02/15 18:55:00;;;;;;;10.8;5.2;;;;;;;;;;;;;
2020/02/15 18:57:25;;;;;;;8.1;5.3;;;;;;;;;;;;;
2020/02/15 18:59:50;;;;;;;8.7;5.3;;;;;;;;;;;;;
2020/02/15 19:02:15;;;;;;;11;6.1;;;;;;;;;;;;;
2020/02/15 19:07:05;;;;;;;10.5;6.6;;;;;;;;;;;;;
2020/02/15 19:09:30;;;;;;;9;7.6;;;;;;;;;;;;;
2020/02/15 19:11:55;;;;;;;10.3;7.5;;;;;;;;;;;;;
2020/02/15 19:14:21;;;;;;;9.9;7.1;;;;;;;;;;;;;
2020/02/15 19:16:46;;;;;;;10.2;7;;;;;;;;;;;;;
2020/02/15 19:19:11;;;;;;;11.4;7.5;;;;;;;;;;;;;
2020/02/15 19:21:36;;;;;;;10.2;7.3;;;;;;;;;;;;;
2020/02/15 19:24:01;;;;;;;9.9;7.2;;;;;;;;;;;;;
2020/02/15 19:26:26;;;;;;;9.2;7;;;;;;;;;;;;;
2020/02/15 19:28:51;;;;;;;11.8;8.4;;;;;;;;;;;;;
2020/02/15 19:31:16;;;;;;;12.3;7.8;;;;;;;;;;;;;
2020/02/15 19:33:42;;;;;;;12.3;8.1;;;;;;;;;;;;;
2020/02/15 19:36:07;;;;;;;10.4;8.1;;;;;;;;;;;;;
2020/02/15 19:38:32;;;;;;;10.9;8;;;;;;;;;;;;;
2020/02/15 19:40:57;;;;;;;12.2;8;;;;;;;;;;;;;
2020/02/15 19:43:22;;;;;;;11.7;8;;;;;;;;;;;;;
2020/02/15 19:45:47;;;;;;;8.8;7.3;;;;;;;;;;;;;
2020/02/15 19:48:12;;;;;;;10.3;7.3;;;;;;;;;;;;;
2020/02/15 19:50:37;;;;;;;8.3;6;;;;;;;;;;;;;
2020/02/15 19:53:02;;;;;;;9.2;6.3;;;;;;;;;;;;;
2020/02/15 19:55:27;;;;;;;10;7.1;;;;;;;;;;;;;
2020/02/15 19:57:52;;;;;;;11.9;6.7;;;;;;;;;;;;;
2020/02/15 20:00:18;;;;;;;9;6.4;;;;;;;;;;;;;
2020/02/15 20:02:43;;;;;;;8.9;6.5;;;;;;;;;;;;;
2020/02/15 20:05:08;;;;;;;8.8;6.2;;;;;;;;;;;;;
2020/02/15 20:07:33;;;;;;;8.9;6;;;;;;;;;;;;;
2020/02/15 20:09:58;;;;;;;8.6;6.3;;;;;;;;;;;;;
2020/02/15 20:12:23;;;;;;;7.7;6.2;;;;;;;;;;;;;
2020/02/15 20:14:48;;;;;;;6.8;5.7;;;;;;;;;;;;;
2020/02/15 20:17:22;;;;;;;6.9;6;;;;;;;;;;;;;
2020/02/15 20:19:38;;;;;;;7.2;6;;;;;;;;;;;;;
2020/02/15 20:22:03;;;;;;;8.3;6.2;;;;;;;;;;;;;
2020/02/15 20:24:29;;;;;;;7.8;6.4;;;;;;;;;;;;;
2020/02/15 20:26:54;;;;;;;8;6.4;;;;;;;;;;;;;
2020/02/15 20:29:19;;;;;;;7.4;6.4;;;;;;;;;;;;;
2020/02/15 20:31:44;;;;;;;9.2;7.2;;;;;;;;;;;;;
2020/02/15 20:34:09;;;;;;;9.7;7.6;;;;;;;;;;;;;
2020/02/15 20:36:34;;;;;;;10.8;8.3;;;;;;;;;;;;;
2020/02/15 20:38:59;;;;;;;10.3;7.9;;;;;;;;;;;;;
2020/02/15 20:41:24;;;;;;;10.2;7.6;;;;;;;;;;;;;
2020/02/15 20:43:49;;;;;;;9.4;7.4;;;;;;;;;;;;;
2020/02/15 20:46:15;;;;;;;9.2;6.9;;;;;;;;;;;;;
2020/02/15 20:48:40;;;;;;;9.7;7.4;;;;;;;;;;;;;
2020/02/15 20:51:05;;;;;;;9.3;7.4;;;;;;;;;;;;;
2020/02/15 20:53:30;;;;;;;9.4;7;;;;;;;;;;;;;
2020/02/15 20:55:55;;;;;;;9.7;7.1;;;;;;;;;;;;;
2020/02/15 20:58:20;;;;;;;9.8;7.4;;;;;;;;;;;;;
2020/02/15 21:00:45;;;;;;;10;7.5;;;;;;;;;;;;;
2020/02/15 21:03:10;;;;;;;10.4;8.3;;;;;;;;;;;;;
2020/02/15 21:05:35;;;;;;;10.5;7.8;;;;;;;;;;;;;